Time;durP1;ratioP1;P1;durP2;ratioP2;P2;SDS_P1;SDS_P2;PMS_P1;PMS_P2;Temp;Humidity;BMP_temperature;BMP_pressure;BME280_temperature;BME280_humidity;BME280_pressure;Samples;Min_cycle;Max_cycle;Signal;HPM_P1;HPM_P2
2023/09/25 00:01:52;;;;;;;5.05;2.17;;;13.30;99.90;;;;;;5075397;28;20040;-81
2023/09/25 00:04:25;;;;;;;4.63;1.92;;;13.30;99.90;;;;;;5054394;28;20047;-81
2023/09/25 00:06:51;;;;;;;6.28;2.20;;;13.40;99.90;;;;;;5054909;28;20047;-80
2023/09/25 00:09:17;;;;;;;6.07;2.20;;;13.50;99.90;;;;;;5084483;28;20037;-81
2023/09/25 00:11:43;;;;;;;4.32;2.08;;;13.40;99.90;;;;;;5068833;28;20051;-82
2023/09/25 00:14:08;;;;;;;5.25;2.05;;;13.50;99.90;;;;;;5076449;28;20040;-81
2023/09/25 00:16:34;;;;;;;5.90;2.05;;;13.50;99.90;;;;;;5091284;28;20040;-81
2023/09/25 00:19:00;;;;;;;3.40;1.85;;;13.50;99.90;;;;;;5074624;28;20040;-81
2023/09/25 00:21:26;;;;;;;4.40;2.05;;;13.50;99.90;;;;;;5052344;28;20063;-80
2023/09/25 00:23:52;;;;;;;7.22;2.22;;;13.90;99.90;;;;;;5072125;28;20033;-81
2023/09/25 00:26:17;;;;;;;2.92;1.80;;;13.60;99.90;;;;;;5078011;28;20051;-82
2023/09/25 00:28:43;;;;;;;5.43;1.92;;;13.50;99.90;;;;;;5055489;28;20116;-81
2023/09/25 00:31:09;;;;;;;4.10;2.13;;;13.60;99.90;;;;;;5080228;28;20040;-81
2023/09/25 00:33:35;;;;;;;3.78;1.73;;;13.90;99.90;;;;;;5067381;28;20044;-80
2023/09/25 00:36:05;;;;;;;4.60;1.80;;;13.50;99.90;;;;;;5088268;28;20048;-82
2023/09/25 00:38:31;;;;;;;8.77;2.05;;;13.60;99.90;;;;;;5065753;28;20048;-81
2023/09/25 00:40:57;;;;;;;4.55;2.08;;;13.70;99.90;;;;;;5073969;28;20032;-80
2023/09/25 00:43:23;;;;;;;4.50;2.10;;;13.70;99.90;;;;;;5076147;28;20036;-80
2023/09/25 00:45:49;;;;;;;5.45;1.92;;;13.60;99.90;;;;;;5062515;28;20099;-80
2023/09/25 00:48:27;;;;;;;2.97;1.88;;;13.60;99.90;;;;;;5081326;28;20044;-79
2023/09/25 00:51:00;;;;;;;3.70;2.08;;;13.60;99.90;;;;;;5071027;28;20045;-82
2023/09/25 00:53:31;;;;;;;5.55;2.42;;;13.60;99.90;;;;;;5083800;28;20145;-80
2023/09/25 00:55:57;;;;;;;4.90;2.20;;;13.50;99.90;;;;;;5088328;28;20138;-82
2023/09/25 00:58:24;;;;;;;3.65;1.85;;;13.50;99.90;;;;;;5092595;28;20032;-82
2023/09/25 01:00:50;;;;;;;4.53;2.50;;;13.50;99.90;;;;;;5100095;28;20040;-80
2023/09/25 01:03:16;;;;;;;4.72;2.25;;;13.50;99.90;;;;;;5079060;28;20041;-80
2023/09/25 01:05:42;;;;;;;5.18;2.33;;;13.50;99.90;;;;;;5078279;28;20036;-82
2023/09/25 01:08:08;;;;;;;6.15;2.22;;;13.40;99.90;;;;;;5082299;28;20524;-81
2023/09/25 01:10:34;;;;;;;5.80;2.25;;;13.40;99.90;;;;;;5090526;28;20100;-80
2023/09/25 01:13:01;;;;;;;4.85;2.40;;;13.40;99.90;;;;;;5065449;28;20040;-83
2023/09/25 01:15:27;;;;;;;5.20;2.80;;;13.70;99.90;;;;;;5081816;28;20045;-81
2023/09/25 01:17:55;;;;;;;2.83;2.10;;;13.40;99.90;;;;;;5079896;28;20045;-80
2023/09/25 01:20:22;;;;;;;4.57;2.30;;;13.50;99.90;;;;;;5077192;28;20056;-81
2023/09/25 01:22:49;;;;;;;4.72;2.17;;;13.30;99.90;;;;;;5059808;28;20049;-81
2023/09/25 01:25:17;;;;;;;5.27;2.47;;;13.30;99.90;;;;;;5079933;28;20037;-80
2023/09/25 01:27:43;;;;;;;5.00;2.33;;;13.30;99.90;;;;;;5086322;28;20044;-82
2023/09/25 01:30:10;;;;;;;5.75;2.45;;;13.30;99.90;;;;;;5103660;28;20062;-82
2023/09/25 01:32:37;;;;;;;6.63;2.58;;;13.30;99.90;;;;;;5088147;28;20072;-81
2023/09/25 01:35:08;;;;;;;8.32;2.78;;;13.30;99.90;;;;;;5086154;28;20048;-82
2023/09/25 01:37:35;;;;;;;5.40;2.60;;;13.30;99.90;;;;;;5081440;28;20032;-80
2023/09/25 01:40:01;;;;;;;5.43;2.17;;;13.30;99.90;;;;;;5062454;28;20048;-81
2023/09/25 01:42:27;;;;;;;8.05;2.55;;;13.30;99.90;;;;;;5078387;28;20040;-83
2023/09/25 01:44:52;;;;;;;5.55;2.83;;;13.30;99.90;;;;;;5075157;28;20065;-80
2023/09/25 01:47:18;;;;;;;6.43;2.60;;;13.30;99.90;;;;;;5074468;28;20047;-82
2023/09/25 01:49:44;;;;;;;5.03;2.45;;;13.50;99.90;;;;;;5073981;28;20040;-82
2023/09/25 01:52:12;;;;;;;6.03;2.17;;;13.30;99.90;;;;;;5071861;28;20075;-82
2023/09/25 01:54:38;;;;;;;6.40;2.65;;;13.40;99.90;;;;;;5074682;28;20044;-80
2023/09/25 01:57:04;;;;;;;5.45;2.13;;;13.20;99.90;;;;;;5091895;28;20048;-82
2023/09/25 01:59:30;;;;;;;3.15;2.35;;;13.20;99.90;;;;;;5072906;28;20612;-80
2023/09/25 02:01:56;;;;;;;6.72;2.83;;;13.20;99.90;;;;;;5063868;28;20091;-84
2023/09/25 02:04:28;;;;;;;4.22;2.50;;;13.20;99.90;;;;;;5071844;28;20099;-82
2023/09/25 02:06:55;;;;;;;3.55;2.25;;;13.20;99.90;;;;;;5070079;28;20059;-81
2023/09/25 02:09:21;;;;;;;5.90;2.40;;;13.10;99.90;;;;;;5065957;28;20040;-80
2023/09/25 02:11:50;;;;;;;5.40;2.72;;;13.10;99.90;;;;;;5059181;28;20052;-82
2023/09/25 02:14:16;;;;;;;5.30;2.30;;;13.10;99.90;;;;;;5072187;28;20051;-81
2023/09/25 02:16:41;;;;;;;8.82;2.55;;;13.10;99.90;;;;;;5072768;28;20486;-82
2023/09/25 02:19:11;;;;;;;5.55;2.38;;;13.10;99.90;;;;;;5074505;28;20037;-79
2023/09/25 02:21:37;;;;;;;5.05;2.90;;;13.00;99.90;;;;;;5081552;28;20363;-82
2023/09/25 02:24:03;;;;;;;6.30;2.50;;;13.10;99.90;;;;;;5071973;28;20056;-82
2023/09/25 02:26:29;;;;;;;5.75;2.28;;;12.90;99.90;;;;;;5061689;28;20033;-81
2023/09/25 02:28:57;;;;;;;3.85;2.30;;;13.00;99.90;;;;;;5072498;28;20032;-83
2023/09/25 02:31:23;;;;;;;5.25;2.45;;;13.00;99.90;;;;;;5068644;28;20083;-81
2023/09/25 02:33:49;;;;;;;4.60;2.45;;;13.00;99.90;;;;;;5063501;28;20045;-80
2023/09/25 02:36:15;;;;;;;6.50;3.05;;;13.00;99.90;;;;;;5067715;28;20040;-82
2023/09/25 02:38:40;;;;;;;4.32;2.53;;;13.00;99.90;;;;;;5074571;28;20101;-81
2023/09/25 02:41:06;;;;;;;5.32;2.58;;;13.00;99.90;;;;;;5073416;28;20071;-80
2023/09/25 02:43:32;;;;;;;5.38;2.53;;;12.90;99.90;;;;;;5079271;28;20044;-81
2023/09/25 02:45:57;;;;;;;5.28;2.70;;;12.90;99.90;;;;;;5090726;28;20376;-80
2023/09/25 02:48:23;;;;;;;5.13;2.90;;;12.90;99.90;;;;;;5080320;28;20083;-82
2023/09/25 02:50:49;;;;;;;7.18;2.75;;;12.90;99.90;;;;;;5078216;28;20083;-80
2023/09/25 02:53:17;;;;;;;5.47;2.67;;;12.90;99.90;;;;;;5068856;28;20111;-81
2023/09/25 02:55:53;;;;;;;4.45;2.85;;;12.90;99.90;;;;;;5074958;28;20099;-80
2023/09/25 02:58:22;;;;;;;5.32;2.75;;;12.90;99.90;;;;;;5062246;28;20045;-81
2023/09/25 03:00:49;;;;;;;6.78;2.70;;;12.80;99.90;;;;;;5070197;28;20036;-80
2023/09/25 03:03:14;;;;;;;3.83;2.65;;;12.80;99.90;;;;;;5062900;28;20857;-80
2023/09/25 03:05:40;;;;;;;5.60;2.70;;;12.80;99.90;;;;;;5074569;28;20167;-83
2023/09/25 03:08:06;;;;;;;8.20;2.70;;;12.80;99.90;;;;;;5060395;28;20037;-81
2023/09/25 03:10:32;;;;;;;4.03;2.35;;;12.80;99.90;;;;;;5064383;28;20068;-81
2023/09/25 03:12:57;;;;;;;4.72;2.83;;;12.80;99.90;;;;;;5090867;28;20115;-80
2023/09/25 03:15:24;;;;;;;7.50;2.70;;;12.70;99.90;;;;;;5080383;28;20552;-85
2023/09/25 03:17:54;;;;;;;7.65;2.97;;;12.70;99.90;;;;;;5092462;28;20057;-80
2023/09/25 03:20:22;;;;;;;6.80;2.90;;;12.80;99.90;;;;;;5088546;28;20440;-82
2023/09/25 03:22:48;;;;;;;;;;;12.70;99.90;;;;;;5070282;28;20422;-81
2023/09/25 03:25:14;;;;;;;4.60;2.95;;;12.70;99.90;;;;;;5070380;28;20019;-83
2023/09/25 03:27:40;;;;;;;7.25;2.75;;;13.10;99.90;;;;;;5064201;28;20041;-81
2023/09/25 03:30:06;;;;;;;6.57;2.50;;;12.60;99.90;;;;;;5075161;28;20053;-81
2023/09/25 03:32:33;;;;;;;10.32;2.90;;;12.60;99.90;;;;;;5056322;28;20040;-82
2023/09/25 03:34:58;;;;;;;6.50;3.10;;;12.60;99.90;;;;;;5061200;28;20100;-81
2023/09/25 03:37:24;;;;;;;6.53;2.75;;;12.50;99.90;;;;;;5055436;28;20191;-80
2023/09/25 03:39:51;;;;;;;5.85;2.72;;;12.50;99.90;;;;;;5078242;28;20048;-81
2023/09/25 03:42:17;;;;;;;4.82;2.40;;;12.50;99.90;;;;;;5057556;28;20044;-81
2023/09/25 03:44:43;;;;;;;5.65;2.60;;;12.50;99.90;;;;;;5061979;28;20502;-82
2023/09/25 03:47:08;;;;;;;3.80;2.55;;;12.50;99.90;;;;;;5070026;28;20101;-81
2023/09/25 03:49:34;;;;;;;5.55;2.78;;;12.50;99.90;;;;;;5060725;28;20482;-81
2023/09/25 03:52:00;;;;;;;4.22;2.80;;;12.50;99.90;;;;;;5065334;28;20036;-79
2023/09/25 03:54:25;;;;;;;6.03;2.45;;;13.50;99.90;;;;;;5069871;28;20498;-81
2023/09/25 03:56:51;;;;;;;4.05;2.70;;;12.50;99.90;;;;;;5078513;28;20119;-85
2023/09/25 03:59:17;;;;;;;3.60;2.42;;;12.40;99.90;;;;;;5066270;28;20049;-82
2023/09/25 04:01:43;;;;;;;6.50;2.90;;;12.50;99.90;;;;;;5065088;28;20407;-81
2023/09/25 04:04:08;;;;;;;6.70;3.00;;;12.40;99.90;;;;;;5067558;28;20440;-82
2023/09/25 04:06:34;;;;;;;4.90;2.65;;;12.50;99.90;;;;;;5070922;28;20036;-81
2023/09/25 04:09:00;;;;;;;8.18;3.00;;;12.40;99.90;;;;;;5076804;28;20051;-83
2023/09/25 04:11:25;;;;;;;5.43;3.00;;;12.40;99.90;;;;;;5073853;28;20045;-80
2023/09/25 04:13:51;;;;;;;5.55;2.75;;;12.40;99.90;;;;;;5073327;28;20063;-83
2023/09/25 04:16:20;;;;;;;6.28;3.05;;;12.40;99.90;;;;;;5079887;28;20568;-82
2023/09/25 04:18:46;;;;;;;4.40;2.95;;;12.40;99.90;;;;;;5079665;28;20036;-82
2023/09/25 04:21:14;;;;;;;6.15;2.85;;;12.40;99.90;;;;;;5091470;28;20047;-82
2023/09/25 04:23:43;;;;;;;4.93;2.60;;;12.40;99.90;;;;;;5068617;28;20475;-81
2023/09/25 04:26:11;;;;;;;5.95;3.00;;;12.40;99.90;;;;;;5072994;28;20070;-81
2023/09/25 04:28:38;;;;;;;7.38;3.53;;;12.50;99.90;;;;;;5087284;28;20072;-80
2023/09/25 04:31:04;;;;;;;7.45;3.13;;;12.40;99.90;;;;;;5110196;28;20043;-81
2023/09/25 04:33:32;;;;;;;8.98;2.92;;;13.40;99.90;;;;;;5078190;28;20049;-83
2023/09/25 04:35:59;;;;;;;7.97;3.42;;;12.40;99.90;;;;;;5085126;28;20052;-81
2023/09/25 04:38:28;;;;;;;5.97;3.00;;;12.40;99.90;;;;;;5078779;28;20044;-82
2023/09/25 04:40:54;;;;;;;4.55;2.70;;;12.40;99.90;;;;;;5085233;28;20063;-80
2023/09/25 04:43:21;;;;;;;5.57;2.65;;;12.40;99.90;;;;;;5084869;28;20052;-83
2023/09/25 04:45:51;;;;;;;6.22;2.75;;;12.60;99.90;;;;;;5078098;28;20048;-82
2023/09/25 04:48:18;;;;;;;5.57;3.25;;;12.50;99.90;;;;;;5077066;28;20055;-82
2023/09/25 04:50:44;;;;;;;6.57;3.58;;;12.40;99.90;;;;;;5077829;28;20394;-82
2023/09/25 04:53:10;;;;;;;5.07;3.25;;;12.50;99.90;;;;;;5071038;28;20053;-81
2023/09/25 04:55:39;;;;;;;6.63;3.00;;;12.40;99.90;;;;;;5063421;28;20051;-81
2023/09/25 04:58:05;;;;;;;5.35;3.00;;;12.40;99.90;;;;;;5085085;28;20058;-82
2023/09/25 05:00:32;;;;;;;4.85;3.22;;;12.40;99.90;;;;;;5074851;28;20036;-80
2023/09/25 05:02:59;;;;;;;7.00;2.90;;;12.40;99.90;;;;;;5089711;28;20123;-80
2023/09/25 05:05:26;;;;;;;6.45;3.33;;;12.40;99.90;;;;;;5082735;28;20071;-83
2023/09/25 05:07:54;;;;;;;5.30;2.90;;;12.40;99.90;;;;;;5087438;28;20057;-82
2023/09/25 05:10:25;;;;;;;6.85;3.38;;;12.40;99.90;;;;;;5091734;28;20048;-80
2023/09/25 05:12:52;;;;;;;5.32;3.20;;;12.40;99.90;;;;;;5082440;28;20130;-79
2023/09/25 05:15:18;;;;;;;5.70;2.70;;;12.40;99.90;;;;;;5094832;28;20032;-82
2023/09/25 05:17:45;;;;;;;4.60;2.83;;;12.70;99.90;;;;;;5066310;28;20029;-80
2023/09/25 05:20:24;;;;;;;5.97;3.38;;;12.40;99.90;;;;;;5061136;28;20041;-81
2023/09/25 05:22:55;;;;;;;7.70;4.50;;;12.40;99.90;;;;;;5075683;28;20075;-81
2023/09/25 05:25:22;;;;;;;5.47;3.35;;;12.30;99.90;;;;;;5081404;28;20040;-81
2023/09/25 05:27:50;;;;;;;6.30;3.38;;;12.30;99.90;;;;;;5078227;28;20044;-82
2023/09/25 05:30:20;;;;;;;10.13;3.42;;;12.40;99.90;;;;;;5077861;28;20049;-80
2023/09/25 05:32:55;;;;;;;6.82;3.17;;;12.30;99.90;;;;;;5081699;28;20110;-82
2023/09/25 05:35:21;;;;;;;6.55;3.20;;;12.30;99.90;;;;;;5077884;28;20495;-80
2023/09/25 05:37:48;;;;;;;3.92;2.80;;;12.40;99.90;;;;;;5074558;28;20070;-81
2023/09/25 05:40:15;;;;;;;5.78;2.80;;;12.30;99.90;;;;;;5083880;28;20075;-81
2023/09/25 05:42:45;;;;;;;6.20;3.30;;;12.30;99.90;;;;;;5080759;28;20043;-82
2023/09/25 05:45:12;;;;;;;5.32;3.17;;;12.80;99.90;;;;;;5076774;28;20068;-80
2023/09/25 05:47:38;;;;;;;7.90;3.13;;;12.30;99.90;;;;;;5069100;28;20112;-81
2023/09/25 05:50:06;;;;;;;4.57;2.92;;;12.40;99.90;;;;;;5060131;28;20083;-80
2023/09/25 05:52:33;;;;;;;;;;;12.30;99.90;;;;;;5077582;28;20033;-83
2023/09/25 05:54:58;;;;;;;4.22;2.78;;;12.40;99.90;;;;;;5071827;28;20340;-81
2023/09/25 05:57:27;;;;;;;5.72;2.92;;;12.40;99.90;;;;;;5065410;28;20041;-82
2023/09/25 05:59:53;;;;;;;4.35;3.00;;;12.40;99.90;;;;;;5067415;28;20067;-81
2023/09/25 06:02:18;;;;;;;6.00;2.85;;;12.30;99.90;;;;;;5072363;28;20041;-81
2023/09/25 06:04:44;;;;;;;4.30;2.80;;;12.50;99.90;;;;;;5068596;28;20037;-81
2023/09/25 06:07:11;;;;;;;5.88;3.10;;;12.50;99.90;;;;;;5070543;28;20052;-80
2023/09/25 06:09:37;;;;;;;4.80;2.85;;;12.50;99.90;;;;;;5066920;28;20048;-79
2023/09/25 06:12:04;;;;;;;5.57;3.00;;;12.40;99.90;;;;;;5052480;28;20040;-80
2023/09/25 06:14:30;;;;;;;5.07;2.80;;;12.50;99.90;;;;;;5077731;28;20036;-82
2023/09/25 06:16:57;;;;;;;8.45;3.30;;;12.50;99.90;;;;;;5066146;28;20142;-82
2023/09/25 06:19:24;;;;;;;5.32;2.92;;;12.50;99.90;;;;;;5074375;28;20048;-81
2023/09/25 06:21:56;;;;;;;4.88;2.83;;;12.50;99.90;;;;;;5068524;28;20060;-82
2023/09/25 06:24:25;;;;;;;5.55;3.20;;;12.60;99.90;;;;;;5065850;28;20032;-81
2023/09/25 06:26:53;;;;;;;5.13;2.85;;;12.60;99.90;;;;;;5074744;28;20077;-80
2023/09/25 06:29:21;;;;;;;4.78;2.50;;;12.90;99.90;;;;;;5049457;28;20102;-83
2023/09/25 06:31:48;;;;;;;6.03;2.83;;;12.70;99.90;;;;;;5055662;28;20084;-83
2023/09/25 06:34:15;;;;;;;6.25;2.90;;;13.30;99.90;;;;;;5057229;28;20041;-81
2023/09/25 06:36:42;;;;;;;5.88;2.78;;;12.80;99.90;;;;;;5061202;28;20045;-83
2023/09/25 06:39:11;;;;;;;6.30;2.85;;;12.80;99.90;;;;;;5080875;28;20036;-81
2023/09/25 06:41:37;;;;;;;4.63;2.63;;;12.90;99.90;;;;;;5058301;28;20494;-83
2023/09/25 06:44:07;;;;;;;7.18;2.78;;;13.10;99.90;;;;;;5057936;28;20539;-81
2023/09/25 06:46:33;;;;;;;7.30;3.15;;;12.90;99.90;;;;;;5062476;28;20395;-80
2023/09/25 06:49:00;;;;;;;3.95;2.30;;;12.90;99.90;;;;;;5053535;28;20048;-80
2023/09/25 06:51:27;;;;;;;6.75;2.90;;;13.00;99.90;;;;;;5076649;28;20063;-84
2023/09/25 06:53:53;;;;;;;6.03;2.93;;;13.10;99.90;;;;;;5072499;28;20354;-81
2023/09/25 06:56:19;;;;;;;8.50;3.67;;;13.00;99.90;;;;;;5074420;28;20055;-82
2023/09/25 06:58:45;;;;;;;6.82;3.08;;;13.00;99.90;;;;;;5052296;28;20112;-81
2023/09/25 07:01:10;;;;;;;5.55;2.70;;;13.30;99.90;;;;;;5069977;28;20060;-81
2023/09/25 07:03:36;;;;;;;5.05;2.70;;;13.10;99.90;;;;;;5058305;28;20399;-81
2023/09/25 07:06:02;;;;;;;5.93;2.63;;;13.10;99.90;;;;;;5091610;28;20243;-81
2023/09/25 07:08:28;;;;;;;4.55;2.70;;;13.10;99.90;;;;;;5069909;28;20452;-81
2023/09/25 07:10:54;;;;;;;4.82;2.80;;;13.10;99.90;;;;;;5053970;28;20045;-81
2023/09/25 07:13:20;;;;;;;5.75;2.70;;;13.10;99.90;;;;;;5069770;28;20044;-82
2023/09/25 07:15:47;;;;;;;5.15;2.85;;;13.20;99.90;;;;;;5048731;28;20037;-82
2023/09/25 07:18:13;;;;;;;4.90;3.05;;;13.20;99.90;;;;;;5090275;28;20056;-81
2023/09/25 07:20:40;;;;;;;5.78;3.00;;;13.20;99.90;;;;;;5070932;28;20356;-82
2023/09/25 07:23:06;;;;;;;5.22;2.67;;;13.20;99.90;;;;;;5048444;28;20387;-80
2023/09/25 07:25:35;;;;;;;6.25;2.78;;;13.30;99.90;;;;;;5069298;28;20048;-81
2023/09/25 07:28:01;;;;;;;6.25;2.55;;;13.30;99.90;;;;;;5060172;28;20453;-80
2023/09/25 07:30:27;;;;;;;7.80;2.80;;;13.30;99.90;;;;;;5072236;28;20052;-82
2023/09/25 07:32:52;;;;;;;4.72;2.65;;;13.40;99.90;;;;;;5083557;28;20384;-81
2023/09/25 07:35:18;;;;;;;5.03;2.78;;;13.40;99.90;;;;;;5077174;28;20051;-81
2023/09/25 07:37:45;;;;;;;5.43;2.47;;;13.50;99.90;;;;;;5084985;28;20083;-82
2023/09/25 07:40:13;;;;;;;7.05;2.55;;;13.50;99.90;;;;;;5068252;28;20072;-81
2023/09/25 07:42:42;;;;;;;4.28;2.70;;;13.60;99.90;;;;;;5073846;28;20094;-81
2023/09/25 07:45:22;;;;;;;9.10;2.42;;;13.70;99.90;;;;;;5081645;28;20048;-82
2023/09/25 07:47:48;;;;;;;6.93;2.60;;;13.80;99.90;;;;;;5071202;28;20047;-82
2023/09/25 07:50:14;;;;;;;6.13;2.58;;;13.90;99.90;;;;;;5068310;28;20078;-80
2023/09/25 07:52:41;;;;;;;4.93;2.50;;;14.40;99.90;;;;;;5075079;28;20065;-79
2023/09/25 07:55:13;;;;;;;5.10;2.70;;;14.10;99.90;;;;;;5078346;28;20044;-80
2023/09/25 07:57:44;;;;;;;5.70;2.90;;;14.20;99.90;;;;;;5077226;28;20044;-80
2023/09/25 08:00:23;;;;;;;7.93;2.65;;;14.30;99.90;;;;;;5086036;28;20074;-81
2023/09/25 08:02:52;;;;;;;5.00;2.90;;;14.40;99.90;;;;;;5075273;28;20041;-81
2023/09/25 08:05:22;;;;;;;7.75;2.58;;;14.50;99.90;;;;;;5089351;28;20037;-81
2023/09/25 08:07:52;;;;;;;4.93;2.53;;;14.50;99.90;;;;;;5078462;28;20041;-81
2023/09/25 08:10:20;;;;;;;4.75;2.55;;;14.60;99.90;;;;;;5080429;28;20124;-81
2023/09/25 08:12:46;;;;;;;5.00;2.83;;;14.50;99.90;;;;;;5089542;28;20044;-82
2023/09/25 08:15:13;;;;;;;5.65;2.95;;;14.60;99.90;;;;;;5088412;28;20036;-82
2023/09/25 08:17:43;;;;;;;6.93;2.80;;;14.70;99.90;;;;;;5077799;28;20059;-81
2023/09/25 08:20:22;;;;;;;6.63;3.28;;;14.80;99.90;;;;;;5084871;28;20071;-79
2023/09/25 08:22:51;;;;;;;5.43;2.60;;;14.80;99.90;;;;;;5085091;28;20045;-80
2023/09/25 08:25:17;;;;;;;6.85;2.63;;;14.90;99.90;;;;;;5073723;28;20040;-81
2023/09/25 08:27:43;;;;;;;5.35;2.45;;;14.90;99.90;;;;;;5071567;28;20491;-81
2023/09/25 08:30:10;;;;;;;6.57;3.05;;;15.00;99.90;;;;;;5067086;28;20052;-81
2023/09/25 08:32:36;;;;;;;4.88;2.35;;;15.10;99.90;;;;;;5070668;28;20119;-81
2023/09/25 08:35:02;;;;;;;3.95;2.60;;;15.20;99.90;;;;;;5072107;28;20036;-81
2023/09/25 08:37:28;;;;;;;4.55;2.42;;;15.30;99.90;;;;;;5075245;28;20041;-80
2023/09/25 08:39:54;;;;;;;5.15;2.45;;;15.30;99.90;;;;;;5077146;28;20044;-80
2023/09/25 08:42:21;;;;;;;4.53;2.55;;;15.60;99.90;;;;;;5049235;28;20475;-81
2023/09/25 08:44:51;;;;;;;6.45;2.25;;;15.50;99.90;;;;;;5079120;28;20060;-80
2023/09/25 08:47:19;;;;;;;6.88;2.47;;;15.60;99.90;;;;;;5063011;28;20040;-79
2023/09/25 08:49:48;;;;;;;11.55;2.75;;;15.80;99.90;;;;;;5049260;28;20100;-80
2023/09/25 08:52:15;;;;;;;7.10;2.83;;;15.90;99.90;;;;;;5060100;28;20045;-81
2023/09/25 08:54:40;;;;;;;4.57;2.25;;;16.20;99.90;;;;;;5068699;28;20055;-80
2023/09/25 08:57:10;;;;;;;6.82;2.53;;;16.30;99.90;;;;;;5066465;28;20041;-80
2023/09/25 08:59:40;;;;;;;4.57;2.67;;;16.50;99.90;;;;;;5079857;28;20117;-79
2023/09/25 09:02:08;;;;;;;4.13;2.13;;;16.60;99.90;;;;;;5075488;28;20051;-80
2023/09/25 09:04:35;;;;;;;8.18;2.58;;;16.70;99.90;;;;;;5064399;28;20048;-80
2023/09/25 09:07:03;;;;;;;5.25;2.38;;;16.80;99.90;;;;;;5065732;28;20037;-81
2023/09/25 09:09:29;;;;;;;;;;;16.90;99.90;;;;;;5062098;28;20531;-81
2023/09/25 09:11:57;;;;;;;7.50;2.58;;;17.10;99.90;;;;;;5071776;28;19967;-81
2023/09/25 09:14:34;;;;;;;4.45;2.17;;;17.10;99.90;;;;;;5068531;28;20037;-81
2023/09/25 09:17:00;;;;;;;5.20;2.20;;;17.20;99.90;;;;;;5082906;28;20096;-81
2023/09/25 09:19:26;;;;;;;4.65;2.50;;;17.30;99.90;;;;;;5057437;28;20111;-80
2023/09/25 09:22:08;;;;;;;5.38;2.40;;;17.50;99.90;;;;;;5078394;28;20036;-82
2023/09/25 09:24:38;;;;;;;8.57;2.90;;;17.60;99.90;;;;;;5072222;28;20052;-81
2023/09/25 09:27:07;;;;;;;6.90;2.42;;;17.60;99.90;;;;;;5081866;28;20066;-80
2023/09/25 09:29:43;;;;;;;6.32;2.58;;;17.70;99.90;;;;;;5092303;28;20044;-80
2023/09/25 09:32:09;;;;;;;5.82;2.42;;;17.70;99.90;;;;;;5093775;28;20055;-79
2023/09/25 09:34:39;;;;;;;4.80;2.55;;;17.70;99.90;;;;;;5111303;28;20062;-80
2023/09/25 09:37:10;;;;;;;4.82;2.40;;;17.80;99.90;;;;;;5080707;28;20098;-81
2023/09/25 09:39:37;;;;;;;5.50;2.85;;;17.90;99.90;;;;;;5063390;28;20190;-80
2023/09/25 09:42:05;;;;;;;5.50;2.50;;;18.00;99.90;;;;;;5043855;28;20045;-80
2023/09/25 09:44:32;;;;;;;5.32;2.15;;;18.20;99.90;;;;;;5065475;28;20048;-81
2023/09/25 09:47:05;;;;;;;4.80;2.40;;;18.30;99.90;;;;;;5064754;28;20037;-79
2023/09/25 09:49:34;;;;;;;4.47;2.20;;;18.40;99.90;;;;;;5091068;28;20037;-81
2023/09/25 09:52:05;;;;;;;7.18;2.72;;;18.50;99.90;;;;;;5074152;28;20060;-81
2023/09/25 09:54:35;;;;;;;6.15;2.47;;;18.50;99.90;;;;;;5054618;28;20062;-80
2023/09/25 09:57:02;;;;;;;7.60;2.70;;;19.20;99.90;;;;;;5062220;28;20077;-81
2023/09/25 09:59:29;;;;;;;10.82;2.33;;;18.90;99.90;;;;;;5070676;28;20045;-80
2023/09/25 10:01:57;;;;;;;5.60;2.28;;;19.10;99.90;;;;;;5077170;28;20032;-80
2023/09/25 10:04:26;;;;;;;4.78;2.28;;;19.20;99.90;;;;;;5060556;28;20086;-78
2023/09/25 10:06:57;;;;;;;4.60;2.38;;;19.20;99.90;;;;;;5074629;28;20063;-79
2023/09/25 10:09:31;;;;;;;4.65;2.53;;;19.30;99.90;;;;;;5064142;28;20127;-78
2023/09/25 10:11:58;;;;;;;7.10;2.40;;;19.40;99.90;;;;;;5071324;28;20142;-80
2023/09/25 10:14:30;;;;;;;6.10;2.45;;;19.50;99.90;;;;;;5085064;28;20048;-80
2023/09/25 10:17:01;;;;;;;4.95;2.30;;;19.70;99.90;;;;;;5063242;28;20390;-79
2023/09/25 10:19:36;;;;;;;3.88;2.28;;;19.90;99.90;;;;;;5068475;28;20934;-80
2023/09/25 10:22:15;;;;;;;4.60;2.28;;;20.20;99.90;;;;;;5079312;28;20119;-81
2023/09/25 10:24:42;;;;;;;4.47;2.30;;;20.30;99.90;;;;;;5086481;28;20096;-82
2023/09/25 10:27:10;;;;;;;4.30;1.97;;;20.40;99.90;;;;;;5076311;28;20088;-79
2023/09/25 10:29:36;;;;;;;4.05;1.95;;;20.50;99.90;;;;;;5075058;28;20119;-79
2023/09/25 10:32:03;;;;;;;7.50;2.63;;;20.60;99.90;;;;;;5078322;28;20123;-81
2023/09/25 10:34:31;;;;;;;3.90;1.95;;;20.80;99.90;;;;;;5075659;28;20041;-80
2023/09/25 10:37:00;;;;;;;4.38;2.30;;;20.80;99.90;;;;;;5066379;28;20044;-81
2023/09/25 10:39:30;;;;;;;5.30;2.00;;;21.00;99.90;;;;;;5084223;28;20087;-80
2023/09/25 10:42:16;;;;;;;4.25;2.28;;;21.20;99.90;;;;;;5083777;28;20037;-80
2023/09/25 10:44:44;;;;;;;3.47;1.83;;;21.40;99.90;;;;;;5071940;28;20056;-80
2023/09/25 10:47:11;;;;;;;5.38;2.28;;;21.40;99.90;;;;;;5077293;28;20040;-80
2023/09/25 10:49:37;;;;;;;6.75;2.40;;;21.30;99.90;;;;;;5081251;28;20055;-81
2023/09/25 10:52:04;;;;;;;5.70;2.78;;;21.30;99.90;;;;;;5071288;28;20049;-80
2023/09/25 10:54:34;;;;;;;3.65;2.20;;;21.30;99.90;;;;;;5071045;28;20055;-81
2023/09/25 10:57:00;;;;;;;4.10;2.28;;;21.50;99.90;;;;;;5074674;28;20455;-81
2023/09/25 10:59:26;;;;;;;4.75;2.20;;;21.80;99.90;;;;;;5068699;28;20298;-83
2023/09/25 11:01:52;;;;;;;4.15;1.95;;;22.00;99.90;;;;;;5057494;28;20123;-80
2023/09/25 11:04:18;;;;;;;5.90;2.47;;;22.20;99.90;;;;;;5053378;28;20044;-81
2023/09/25 11:06:45;;;;;;;3.95;2.25;;;22.30;99.90;;;;;;5082450;28;20048;-80
2023/09/25 11:09:16;;;;;;;4.93;2.10;;;22.40;99.90;;;;;;5081690;28;20067;-82
2023/09/25 11:11:45;;;;;;;5.07;2.28;;;22.60;98.40;;;;;;5069441;28;20107;-80
2023/09/25 11:14:12;;;;;;;5.78;2.40;;;22.60;97.60;;;;;;5092351;28;20116;-80
2023/09/25 11:16:39;;;;;;;4.57;2.25;;;22.70;98.30;;;;;;5093999;28;20041;-81
2023/09/25 11:19:16;;;;;;;5.07;2.00;;;22.90;98.50;;;;;;5089535;28;20037;-80
2023/09/25 11:21:46;;;;;;;4.10;2.20;;;23.20;97.00;;;;;;5073372;28;20107;-82
2023/09/25 11:24:12;;;;;;;4.95;2.70;;;23.40;96.80;;;;;;5076906;28;20033;-81
2023/09/25 11:26:39;;;;;;;5.55;2.10;;;23.60;95.90;;;;;;5080201;28;20379;-81
2023/09/25 11:29:08;;;;;;;5.20;2.20;;;23.50;95.70;;;;;;5082475;28;20049;-81
2023/09/25 11:31:37;;;;;;;5.65;2.25;;;23.40;95.40;;;;;;5094009;28;20047;-80
2023/09/25 11:34:06;;;;;;;6.72;2.70;;;23.40;95.90;;;;;;5063319;28;20104;-81
2023/09/25 11:36:34;;;;;;;7.03;2.75;;;23.50;96.20;;;;;;5084368;28;20052;-81
2023/09/25 11:39:00;;;;;;;4.85;2.00;;;23.50;95.80;;;;;;5088390;28;20036;-79
2023/09/25 11:41:30;;;;;;;4.22;2.42;;;23.60;95.50;;;;;;5068907;28;20045;-80
2023/09/25 11:43:56;;;;;;;5.32;2.40;;;23.30;95.00;;;;;;5083557;28;20064;-80
2023/09/25 11:46:22;;;;;;;4.00;2.17;;;22.90;94.80;;;;;;5096729;28;20055;-80
2023/09/25 11:48:48;;;;;;;4.63;2.03;;;22.60;95.50;;;;;;5083708;28;20036;-80
2023/09/25 11:51:14;;;;;;;5.05;2.20;;;22.30;95.90;;;;;;5069818;28;20052;-81
2023/09/25 11:53:40;;;;;;;3.40;1.90;;;22.00;96.30;;;;;;5079249;28;20040;-80
2023/09/25 11:56:06;;;;;;;4.53;2.13;;;21.80;96.70;;;;;;5067562;28;20045;-80
2023/09/25 11:58:32;;;;;;;4.80;2.15;;;21.70;97.20;;;;;;5066172;28;20056;-82
2023/09/25 12:00:59;;;;;;;4.30;2.13;;;21.50;97.20;;;;;;5077677;28;20099;-80
2023/09/25 12:03:25;;;;;;;6.60;2.38;;;21.50;97.50;;;;;;5093594;28;20059;-80
2023/09/25 12:05:52;;;;;;;5.65;2.28;;;21.70;98.30;;;;;;5086382;28;20045;-80
2023/09/25 12:08:18;;;;;;;4.45;2.00;;;22.10;98.10;;;;;;5074176;28;20052;-81
2023/09/25 12:10:44;;;;;;;8.00;2.55;;;22.20;97.70;;;;;;5088304;28;20041;-81
2023/09/25 12:13:10;;;;;;;4.18;2.22;;;22.30;97.40;;;;;;5081678;28;20037;-82
2023/09/25 12:15:36;;;;;;;3.83;2.30;;;22.30;97.60;;;;;;5083660;28;20044;-82
2023/09/25 12:18:06;;;;;;;4.55;2.20;;;22.30;97.20;;;;;;5088235;28;20032;-81
2023/09/25 12:20:36;;;;;;;4.95;2.08;;;22.40;97.40;;;;;;5074590;28;20048;-81
2023/09/25 12:23:03;;;;;;;5.95;2.15;;;22.30;97.00;;;;;;5083726;28;20080;-80
2023/09/25 12:25:29;;;;;;;7.13;2.25;;;22.10;97.20;;;;;;5103398;28;20047;-79
2023/09/25 12:27:57;;;;;;;4.80;2.20;;;22.00;97.50;;;;;;5067269;28;20048;-81
2023/09/25 12:30:23;;;;;;;4.88;2.10;;;21.90;97.90;;;;;;5081504;28;20037;-79
2023/09/25 12:32:51;;;;;;;5.80;2.60;;;21.90;98.00;;;;;;5084541;28;20055;-78
2023/09/25 12:35:18;;;;;;;38.90;26.25;;;21.90;98.00;;;;;;5080957;28;20040;-81
2023/09/25 12:37:45;;;;;;;57.97;41.30;;;21.80;97.90;;;;;;5087440;28;20044;-82
2023/09/25 12:40:15;;;;;;;70.07;42.78;;;21.70;98.00;;;;;;5060621;28;20736;-82
2023/09/25 12:42:44;;;;;;;9.75;5.13;;;21.30;98.20;;;;;;5067407;28;20188;-79
2023/09/25 12:45:11;;;;;;;7.45;2.72;;;21.50;98.30;;;;;;5083385;28;20048;-79
2023/09/25 12:47:37;;;;;;;9.73;2.53;;;21.30;98.30;;;;;;5082580;28;20047;-81
2023/09/25 12:50:03;;;;;;;7.28;2.60;;;21.20;98.40;;;;;;5078248;28;20056;-82